sensor_id;sensor_type;location;lat;lon;timestamp;temperature;humidity
55369;DHT22;41247;49.736;8.752;2022-09-03T00:00:29;16.90;99.90
55369;DHT22;41247;49.736;8.752;2022-09-03T00:04:43;16.90;99.90
55369;DHT22;41247;49.736;8.752;2022-09-03T00:08:52;16.90;99.90
55369;DHT22;41247;49.736;8.752;2022-09-03T00:12:40;17.00;99.90
55369;DHT22;41247;49.736;8.752;2022-09-03T00:16:26;17.00;99.90
55369;DHT22;41247;49.736;8.752;2022-09-03T00:20:31;17.00;99.90
55369;DHT22;41247;49.736;8.752;2022-09-03T00:24:17;17.00;99.90
55369;DHT22;41247;49.736;8.752;2022-09-03T00:28:01;16.90;99.90
55369;DHT22;41247;49.736;8.752;2022-09-03T00:31:49;16.90;99.90
55369;DHT22;41247;49.736;8.752;2022-09-03T00:36:01;16.90;99.90
55369;DHT22;41247;49.736;8.752;2022-09-03T00:39:46;17.00;99.90
55369;DHT22;41247;49.736;8.752;2022-09-03T00:43:54;17.00;99.90
55369;DHT22;41247;49.736;8.752;2022-09-03T00:59:58;16.90;99.90
55369;DHT22;41247;49.736;8.752;2022-09-03T01:16:31;16.80;99.90
55369;DHT22;41247;49.736;8.752;2022-09-03T01:21:16;16.80;99.90
55369;DHT22;41247;49.736;8.752;2022-09-03T01:24:51;16.80;99.90
55369;DHT22;41247;49.736;8.752;2022-09-03T01:28:52;16.70;99.90
55369;DHT22;41247;49.736;8.752;2022-09-03T01:33:14;16.80;99.90
55369;DHT22;41247;49.736;8.752;2022-09-03T01:45:45;16.70;99.90
55369;DHT22;41247;49.736;8.752;2022-09-03T01:58:30;16.70;99.90
55369;DHT22;41247;49.736;8.752;2022-09-03T02:02:20;16.80;99.90
55369;DHT22;41247;49.736;8.752;2022-09-03T02:06:03;16.80;99.90
55369;DHT22;41247;49.736;8.752;2022-09-03T02:09:43;16.80;99.90
55369;DHT22;41247;49.736;8.752;2022-09-03T02:13:29;16.80;99.90
55369;DHT22;41247;49.736;8.752;2022-09-03T02:17:11;16.80;99.90
55369;DHT22;41247;49.736;8.752;2022-09-03T02:20:53;16.80;99.90
55369;DHT22;41247;49.736;8.752;2022-09-03T02:24:34;16.80;99.90
55369;DHT22;41247;49.736;8.752;2022-09-03T02:28:15;16.80;99.90
55369;DHT22;41247;49.736;8.752;2022-09-03T02:31:56;16.80;99.90
55369;DHT22;41247;49.736;8.752;2022-09-03T02:35:39;16.80;99.90
55369;DHT22;41247;49.736;8.752;2022-09-03T02:39:20;16.80;99.90
55369;DHT22;41247;49.736;8.752;2022-09-03T02:43:02;16.80;99.90
55369;DHT22;41247;49.736;8.752;2022-09-03T02:46:56;16.70;99.90
55369;DHT22;41247;49.736;8.752;2022-09-03T02:50:41;16.70;99.90
55369;DHT22;41247;49.736;8.752;2022-09-03T02:54:22;16.70;99.90
55369;DHT22;41247;49.736;8.752;2022-09-03T02:58:03;16.70;99.90
55369;DHT22;41247;49.736;8.752;2022-09-03T03:01:44;16.60;99.90
55369;DHT22;41247;49.736;8.752;2022-09-03T03:05:32;16.60;99.90
55369;DHT22;41247;49.736;8.752;2022-09-03T03:09:18;16.60;99.90
55369;DHT22;41247;49.736;8.752;2022-09-03T03:12:59;16.60;99.90
55369;DHT22;41247;49.736;8.752;2022-09-03T03:16:40;16.60;99.90
55369;DHT22;41247;49.736;8.752;2022-09-03T03:20:20;16.60;99.90
55369;DHT22;41247;49.736;8.752;2022-09-03T03:24:02;16.60;99.90
55369;DHT22;41247;49.736;8.752;2022-09-03T03:27:43;16.60;99.90
55369;DHT22;41247;49.736;8.752;2022-09-03T03:31:24;16.60;99.90
55369;DHT22;41247;49.736;8.752;2022-09-03T03:35:05;16.60;99.90
55369;DHT22;41247;49.736;8.752;2022-09-03T03:38:46;16.60;99.90
55369;DHT22;41247;49.736;8.752;2022-09-03T03:42:27;16.60;99.90
55369;DHT22;41247;49.736;8.752;2022-09-03T03:46:08;16.60;99.90
55369;DHT22;41247;49.736;8.752;2022-09-03T03:49:49;16.60;99.90
55369;DHT22;41247;49.736;8.752;2022-09-03T03:53:31;16.60;99.90
55369;DHT22;41247;49.736;8.752;2022-09-03T03:57:12;16.50;99.90
55369;DHT22;41247;49.736;8.752;2022-09-03T04:00:52;16.40;99.90
55369;DHT22;41247;49.736;8.752;2022-09-03T04:04:33;16.40;99.90
55369;DHT22;41247;49.736;8.752;2022-09-03T04:08:13;16.30;99.90
55369;DHT22;41247;49.736;8.752;2022-09-03T04:11:54;16.30;99.90
55369;DHT22;41247;49.736;8.752;2022-09-03T04:15:34;16.30;99.90
55369;DHT22;41247;49.736;8.752;2022-09-03T04:19:16;16.30;99.90
55369;DHT22;41247;49.736;8.752;2022-09-03T04:23:00;16.30;99.90
55369;DHT22;41247;49.736;8.752;2022-09-03T04:26:41;16.30;99.90
55369;DHT22;41247;49.736;8.752;2022-09-03T04:30:22;16.30;99.90
55369;DHT22;41247;49.736;8.752;2022-09-03T04:34:03;16.30;99.90
55369;DHT22;41247;49.736;8.752;2022-09-03T04:37:44;16.40;99.90
55369;DHT22;41247;49.736;8.752;2022-09-03T04:41:28;16.40;99.90
55369;DHT22;41247;49.736;8.752;2022-09-03T04:45:10;16.40;99.90
55369;DHT22;41247;49.736;8.752;2022-09-03T04:48:52;16.40;99.90
55369;DHT22;41247;49.736;8.752;2022-09-03T04:52:33;16.40;99.90
55369;DHT22;41247;49.736;8.752;2022-09-03T04:56:16;16.40;99.90
55369;DHT22;41247;49.736;8.752;2022-09-03T04:59:58;16.30;99.90
55369;DHT22;41247;49.736;8.752;2022-09-03T05:03:39;16.30;99.90
55369;DHT22;41247;49.736;8.752;2022-09-03T05:07:20;16.30;99.90
55369;DHT22;41247;49.736;8.752;2022-09-03T05:11:01;16.30;99.90
55369;DHT22;41247;49.736;8.752;2022-09-03T05:14:45;16.40;99.90
55369;DHT22;41247;49.736;8.752;2022-09-03T05:18:27;16.40;99.90
55369;DHT22;41247;49.736;8.752;2022-09-03T05:22:08;16.40;99.90
55369;DHT22;41247;49.736;8.752;2022-09-03T05:26:00;16.40;99.90
55369;DHT22;41247;49.736;8.752;2022-09-03T05:29:57;16.40;99.90
55369;DHT22;41247;49.736;8.752;2022-09-03T05:33:41;16.40;99.90
55369;DHT22;41247;49.736;8.752;2022-09-03T05:37:24;16.40;99.90
55369;DHT22;41247;49.736;8.752;2022-09-03T05:41:11;16.40;99.90
55369;DHT22;41247;49.736;8.752;2022-09-03T05:44:57;16.40;99.90
55369;DHT22;41247;49.736;8.752;2022-09-03T05:48:40;16.40;99.90
55369;DHT22;41247;49.736;8.752;2022-09-03T05:52:20;16.50;99.90
55369;DHT22;41247;49.736;8.752;2022-09-03T05:56:07;16.30;99.90
55369;DHT22;41247;49.736;8.752;2022-09-03T05:59:51;16.10;99.90
55369;DHT22;41247;49.736;8.752;2022-09-03T06:03:31;16.00;99.90
55369;DHT22;41247;49.736;8.752;2022-09-03T06:07:12;15.80;99.90
55369;DHT22;41247;49.736;8.752;2022-09-03T06:11:02;15.60;99.90
55369;DHT22;41247;49.736;8.752;2022-09-03T06:14:42;15.40;99.90
55369;DHT22;41247;49.736;8.752;2022-09-03T06:18:24;15.30;99.90
55369;DHT22;41247;49.736;8.752;2022-09-03T06:22:06;15.30;99.90
55369;DHT22;41247;49.736;8.752;2022-09-03T06:25:46;15.40;99.90
55369;DHT22;41247;49.736;8.752;2022-09-03T06:29:27;15.40;99.90
55369;DHT22;41247;49.736;8.752;2022-09-03T06:33:08;15.50;99.90
55369;DHT22;41247;49.736;8.752;2022-09-03T06:36:48;15.60;99.90
55369;DHT22;41247;49.736;8.752;2022-09-03T06:40:29;15.70;99.90
55369;DHT22;41247;49.736;8.752;2022-09-03T06:44:09;15.80;99.90
55369;DHT22;41247;49.736;8.752;2022-09-03T06:47:50;15.80;99.90
55369;DHT22;41247;49.736;8.752;2022-09-03T06:51:31;15.90;99.90
55369;DHT22;41247;49.736;8.752;2022-09-03T06:55:12;15.90;99.90
55369;DHT22;41247;49.736;8.752;2022-09-03T06:58:58;16.00;99.90
55369;DHT22;41247;49.736;8.752;2022-09-03T07:02:40;16.20;99.90
55369;DHT22;41247;49.736;8.752;2022-09-03T07:06:21;16.50;99.90
55369;DHT22;41247;49.736;8.752;2022-09-03T07:10:03;16.80;99.90
55369;DHT22;41247;49.736;8.752;2022-09-03T07:13:47;17.00;99.90
55369;DHT22;41247;49.736;8.752;2022-09-03T07:17:29;17.00;99.90
55369;DHT22;41247;49.736;8.752;2022-09-03T07:21:15;16.80;99.90
55369;DHT22;41247;49.736;8.752;2022-09-03T07:24:57;16.80;99.90
55369;DHT22;41247;49.736;8.752;2022-09-03T07:28:39;16.70;99.90
55369;DHT22;41247;49.736;8.752;2022-09-03T07:32:20;16.60;99.90
55369;DHT22;41247;49.736;8.752;2022-09-03T07:36:03;16.50;99.90
55369;DHT22;41247;49.736;8.752;2022-09-03T07:39:44;16.40;99.90
55369;DHT22;41247;49.736;8.752;2022-09-03T07:43:31;16.40;99.90
55369;DHT22;41247;49.736;8.752;2022-09-03T07:47:19;16.50;99.90
55369;DHT22;41247;49.736;8.752;2022-09-03T07:51:00;16.40;99.90
55369;DHT22;41247;49.736;8.752;2022-09-03T07:54:41;16.40;99.90
55369;DHT22;41247;49.736;8.752;2022-09-03T07:58:21;16.40;99.90
55369;DHT22;41247;49.736;8.752;2022-09-03T08:02:02;16.50;99.90
55369;DHT22;41247;49.736;8.752;2022-09-03T08:05:43;16.80;99.90
55369;DHT22;41247;49.736;8.752;2022-09-03T08:09:23;16.90;99.90
55369;DHT22;41247;49.736;8.752;2022-09-03T08:13:04;17.00;99.90
55369;DHT22;41247;49.736;8.752;2022-09-03T08:16:46;17.00;99.90
55369;DHT22;41247;49.736;8.752;2022-09-03T08:20:27;17.00;99.90
55369;DHT22;41247;49.736;8.752;2022-09-03T08:24:08;17.00;99.90
55369;DHT22;41247;49.736;8.752;2022-09-03T08:27:48;17.20;99.90
55369;DHT22;41247;49.736;8.752;2022-09-03T08:31:30;17.40;99.90
55369;DHT22;41247;49.736;8.752;2022-09-03T08:35:11;17.60;99.90
55369;DHT22;41247;49.736;8.752;2022-09-03T08:38:53;17.90;99.90
55369;DHT22;41247;49.736;8.752;2022-09-03T08:42:57;18.10;99.90
55369;DHT22;41247;49.736;8.752;2022-09-03T08:46:50;18.30;99.90
55369;DHT22;41247;49.736;8.752;2022-09-03T08:50:39;18.50;99.90
55369;DHT22;41247;49.736;8.752;2022-09-03T08:54:26;18.40;99.90
55369;DHT22;41247;49.736;8.752;2022-09-03T08:58:17;18.40;99.90
55369;DHT22;41247;49.736;8.752;2022-09-03T09:06:11;18.40;99.90
55369;DHT22;41247;49.736;8.752;2022-09-03T09:10:44;18.40;99.90
55369;DHT22;41247;49.736;8.752;2022-09-03T09:14:31;18.40;99.90
55369;DHT22;41247;49.736;8.752;2022-09-03T09:22:40;18.40;99.90
55369;DHT22;41247;49.736;8.752;2022-09-03T09:26:22;18.40;99.90
55369;DHT22;41247;49.736;8.752;2022-09-03T09:30:04;18.40;99.90
55369;DHT22;41247;49.736;8.752;2022-09-03T09:33:45;18.30;99.90
55369;DHT22;41247;49.736;8.752;2022-09-03T09:37:26;18.10;99.90
55369;DHT22;41247;49.736;8.752;2022-09-03T09:41:16;18.10;99.90
55369;DHT22;41247;49.736;8.752;2022-09-03T09:45:08;18.00;99.90
55369;DHT22;41247;49.736;8.752;2022-09-03T09:48:50;18.00;99.90
55369;DHT22;41247;49.736;8.752;2022-09-03T09:52:32;18.20;99.90
55369;DHT22;41247;49.736;8.752;2022-09-03T09:56:24;18.40;99.90
55369;DHT22;41247;49.736;8.752;2022-09-03T10:00:14;18.40;99.90
55369;DHT22;41247;49.736;8.752;2022-09-03T10:03:57;18.20;99.90
55369;DHT22;41247;49.736;8.752;2022-09-03T10:07:39;18.00;99.90
55369;DHT22;41247;49.736;8.752;2022-09-03T10:11:21;18.10;99.90
55369;DHT22;41247;49.736;8.752;2022-09-03T10:19:08;18.10;99.90
55369;DHT22;41247;49.736;8.752;2022-09-03T10:26:44;18.10;99.90
55369;DHT22;41247;49.736;8.752;2022-09-03T10:30:25;18.40;99.90
55369;DHT22;41247;49.736;8.752;2022-09-03T10:34:45;18.70;99.90
55369;DHT22;41247;49.736;8.752;2022-09-03T10:39:04;19.60;99.90
55369;DHT22;41247;49.736;8.752;2022-09-03T10:43:07;20.40;99.90
55369;DHT22;41247;49.736;8.752;2022-09-03T10:46:58;20.70;99.90
55369;DHT22;41247;49.736;8.752;2022-09-03T10:50:51;20.90;99.90
55369;DHT22;41247;49.736;8.752;2022-09-03T10:54:54;20.80;99.90
55369;DHT22;41247;49.736;8.752;2022-09-03T11:07:17;21.10;99.90
55369;DHT22;41247;49.736;8.752;2022-09-03T11:11:22;21.50;99.90
55369;DHT22;41247;49.736;8.752;2022-09-03T11:15:32;22.20;99.90
55369;DHT22;41247;49.736;8.752;2022-09-03T11:19:22;22.40;99.90
55369;DHT22;41247;49.736;8.752;2022-09-03T11:23:12;22.50;99.90
55369;DHT22;41247;49.736;8.752;2022-09-03T11:34:58;22.70;99.90
55369;DHT22;41247;49.736;8.752;2022-09-03T11:38:38;22.70;99.90
55369;DHT22;41247;49.736;8.752;2022-09-03T11:42:48;23.30;99.90
55369;DHT22;41247;49.736;8.752;2022-09-03T11:46:29;23.80;99.90
55369;DHT22;41247;49.736;8.752;2022-09-03T11:50:20;23.30;99.90
55369;DHT22;41247;49.736;8.752;2022-09-03T11:58:25;24.00;99.90
55369;DHT22;41247;49.736;8.752;2022-09-03T12:02:28;24.00;99.90
55369;DHT22;41247;49.736;8.752;2022-09-03T12:06:34;23.60;99.90
55369;DHT22;41247;49.736;8.752;2022-09-03T12:10:37;23.10;99.90
55369;DHT22;41247;49.736;8.752;2022-09-03T12:18:47;22.50;99.90
55369;DHT22;41247;49.736;8.752;2022-09-03T12:22:29;22.20;99.90
55369;DHT22;41247;49.736;8.752;2022-09-03T12:26:18;22.10;99.90
55369;DHT22;41247;49.736;8.752;2022-09-03T12:30:02;22.20;99.90
55369;DHT22;41247;49.736;8.752;2022-09-03T12:33:44;22.60;99.90
55369;DHT22;41247;49.736;8.752;2022-09-03T12:37:26;23.30;99.90
55369;DHT22;41247;49.736;8.752;2022-09-03T12:41:20;23.70;99.90
55369;DHT22;41247;49.736;8.752;2022-09-03T12:45:08;24.00;99.90
55369;DHT22;41247;49.736;8.752;2022-09-03T12:48:53;24.00;99.90
55369;DHT22;41247;49.736;8.752;2022-09-03T12:52:49;23.90;99.90
55369;DHT22;41247;49.736;8.752;2022-09-03T12:56:32;24.30;99.90
55369;DHT22;41247;49.736;8.752;2022-09-03T13:00:16;24.40;99.90
55369;DHT22;41247;49.736;8.752;2022-09-03T13:04:09;24.20;99.90
55369;DHT22;41247;49.736;8.752;2022-09-03T13:07:55;23.90;99.90
55369;DHT22;41247;49.736;8.752;2022-09-03T13:11:38;23.70;99.90
55369;DHT22;41247;49.736;8.752;2022-09-03T13:15:21;23.50;99.90
55369;DHT22;41247;49.736;8.752;2022-09-03T13:23:33;22.80;99.90
55369;DHT22;41247;49.736;8.752;2022-09-03T13:35:12;23.50;99.90
55369;DHT22;41247;49.736;8.752;2022-09-03T13:39:19;24.50;99.90
55369;DHT22;41247;49.736;8.752;2022-09-03T13:43:37;24.60;99.90
55369;DHT22;41247;49.736;8.752;2022-09-03T13:55:36;23.20;99.90
55369;DHT22;41247;49.736;8.752;2022-09-03T14:03:35;22.60;99.90
55369;DHT22;41247;49.736;8.752;2022-09-03T14:15:28;22.70;99.90
55369;DHT22;41247;49.736;8.752;2022-09-03T14:19:47;23.20;99.90
55369;DHT22;41247;49.736;8.752;2022-09-03T14:27:31;24.20;99.90
55369;DHT22;41247;49.736;8.752;2022-09-03T14:31:31;24.10;99.90
55369;DHT22;41247;49.736;8.752;2022-09-03T14:35:58;24.00;99.90
55369;DHT22;41247;49.736;8.752;2022-09-03T14:40:17;24.60;99.90
55369;DHT22;41247;49.736;8.752;2022-09-03T14:44:20;26.50;99.90
55369;DHT22;41247;49.736;8.752;2022-09-03T14:57:06;26.10;99.90
55369;DHT22;41247;49.736;8.752;2022-09-03T15:01:16;25.50;99.90
55369;DHT22;41247;49.736;8.752;2022-09-03T15:13:28;25.10;99.90
55369;DHT22;41247;49.736;8.752;2022-09-03T15:17:41;24.60;99.90
55369;DHT22;41247;49.736;8.752;2022-09-03T15:21:57;24.30;99.90
55369;DHT22;41247;49.736;8.752;2022-09-03T15:30:17;24.00;99.90
55369;DHT22;41247;49.736;8.752;2022-09-03T15:34:00;23.40;99.90
55369;DHT22;41247;49.736;8.752;2022-09-03T15:42:50;22.40;99.90
55369;DHT22;41247;49.736;8.752;2022-09-03T15:46:58;21.90;99.90
55369;DHT22;41247;49.736;8.752;2022-09-03T15:51:04;21.70;99.90
55369;DHT22;41247;49.736;8.752;2022-09-03T15:55:34;21.60;99.90
55369;DHT22;41247;49.736;8.752;2022-09-03T15:59:22;21.50;99.90
55369;DHT22;41247;49.736;8.752;2022-09-03T16:03:10;21.40;99.90
55369;DHT22;41247;49.736;8.752;2022-09-03T16:07:00;21.30;99.90
55369;DHT22;41247;49.736;8.752;2022-09-03T16:10:51;21.20;99.90
55369;DHT22;41247;49.736;8.752;2022-09-03T16:15:31;21.00;99.90
55369;DHT22;41247;49.736;8.752;2022-09-03T16:23:40;20.90;99.90
55369;DHT22;41247;49.736;8.752;2022-09-03T16:27:59;20.90;99.90
55369;DHT22;41247;49.736;8.752;2022-09-03T17:00:37;20.20;99.90
55369;DHT22;41247;49.736;8.752;2022-09-03T17:17:27;20.10;99.90
55369;DHT22;41247;49.736;8.752;2022-09-03T17:21:48;20.00;99.90
55369;DHT22;41247;49.736;8.752;2022-09-03T17:25:40;19.90;99.90
55369;DHT22;41247;49.736;8.752;2022-09-03T17:41:49;19.30;99.90
55369;DHT22;41247;49.736;8.752;2022-09-03T17:45:53;19.30;99.90
55369;DHT22;41247;49.736;8.752;2022-09-03T17:50:13;19.20;99.90
55369;DHT22;41247;49.736;8.752;2022-09-03T17:54:12;19.10;99.90
55369;DHT22;41247;49.736;8.752;2022-09-03T17:58:12;18.90;99.90
55369;DHT22;41247;49.736;8.752;2022-09-03T18:02:04;18.80;99.90
55369;DHT22;41247;49.736;8.752;2022-09-03T18:05:55;18.70;99.90
55369;DHT22;41247;49.736;8.752;2022-09-03T18:09:51;18.60;99.90
55369;DHT22;41247;49.736;8.752;2022-09-03T18:13:57;18.50;99.90
55369;DHT22;41247;49.736;8.752;2022-09-03T18:17:52;18.40;99.90
55369;DHT22;41247;49.736;8.752;2022-09-03T18:21:37;18.30;99.90
55369;DHT22;41247;49.736;8.752;2022-09-03T18:25:21;18.20;99.90
55369;DHT22;41247;49.736;8.752;2022-09-03T18:29:16;18.10;99.90
55369;DHT22;41247;49.736;8.752;2022-09-03T18:33:04;18.10;99.90
55369;DHT22;41247;49.736;8.752;2022-09-03T18:36:45;18.00;99.90
55369;DHT22;41247;49.736;8.752;2022-09-03T18:40:32;17.90;99.90
55369;DHT22;41247;49.736;8.752;2022-09-03T18:56:48;17.60;99.90
55369;DHT22;41247;49.736;8.752;2022-09-03T19:00:34;17.60;99.90
55369;DHT22;41247;49.736;8.752;2022-09-03T19:08:43;17.50;99.90
55369;DHT22;41247;49.736;8.752;2022-09-03T19:17:05;17.40;99.90
55369;DHT22;41247;49.736;8.752;2022-09-03T19:21:38;17.30;99.90
55369;DHT22;41247;49.736;8.752;2022-09-03T19:25:25;17.30;99.90
55369;DHT22;41247;49.736;8.752;2022-09-03T19:41:44;17.10;99.90
55369;DHT22;41247;49.736;8.752;2022-09-03T19:45:53;17.00;99.90
55369;DHT22;41247;49.736;8.752;2022-09-03T19:49:55;16.90;99.90
55369;DHT22;41247;49.736;8.752;2022-09-03T19:53:50;17.00;99.90
55369;DHT22;41247;49.736;8.752;2022-09-03T19:57:31;17.00;99.90
55369;DHT22;41247;49.736;8.752;2022-09-03T20:01:12;16.90;99.90
55369;DHT22;41247;49.736;8.752;2022-09-03T20:05:01;16.90;99.90
55369;DHT22;41247;49.736;8.752;2022-09-03T20:08:43;17.00;99.90
55369;DHT22;41247;49.736;8.752;2022-09-03T20:12:26;17.00;99.90
55369;DHT22;41247;49.736;8.752;2022-09-03T20:20:41;17.00;99.90
55369;DHT22;41247;49.736;8.752;2022-09-03T20:24:31;17.00;99.90
55369;DHT22;41247;49.736;8.752;2022-09-03T20:28:25;17.00;99.90
55369;DHT22;41247;49.736;8.752;2022-09-03T20:44:07;17.00;99.90
55369;DHT22;41247;49.736;8.752;2022-09-03T20:48:06;17.00;99.90
55369;DHT22;41247;49.736;8.752;2022-09-03T20:52:01;16.90;99.90
55369;DHT22;41247;49.736;8.752;2022-09-03T20:55:48;16.80;99.90
55369;DHT22;41247;49.736;8.752;2022-09-03T21:07:39;16.50;99.90
55369;DHT22;41247;49.736;8.752;2022-09-03T21:11:37;16.40;99.90
55369;DHT22;41247;49.736;8.752;2022-09-03T21:20:09;16.20;99.90
55369;DHT22;41247;49.736;8.752;2022-09-03T21:32:24;15.90;99.90
55369;DHT22;41247;49.736;8.752;2022-09-03T21:36:28;15.80;99.90
55369;DHT22;41247;49.736;8.752;2022-09-03T21:40:10;15.80;99.90
55369;DHT22;41247;49.736;8.752;2022-09-03T21:44:21;15.80;99.90
55369;DHT22;41247;49.736;8.752;2022-09-03T21:48:29;15.80;99.90
55369;DHT22;41247;49.736;8.752;2022-09-03T21:52:16;15.80;99.90
55369;DHT22;41247;49.736;8.752;2022-09-03T21:56:16;15.70;99.90
55369;DHT22;41247;49.736;8.752;2022-09-03T22:00:26;15.70;99.90
55369;DHT22;41247;49.736;8.752;2022-09-03T22:04:07;15.60;99.90
55369;DHT22;41247;49.736;8.752;2022-09-03T22:08:11;15.50;99.90
55369;DHT22;41247;49.736;8.752;2022-09-03T22:12:16;15.50;99.90
55369;DHT22;41247;49.736;8.752;2022-09-03T22:16:26;15.60;99.90
55369;DHT22;41247;49.736;8.752;2022-09-03T22:20:33;15.60;99.90
55369;DHT22;41247;49.736;8.752;2022-09-03T22:24:19;15.60;99.90
55369;DHT22;41247;49.736;8.752;2022-09-03T22:28:26;15.70;99.90
55369;DHT22;41247;49.736;8.752;2022-09-03T22:36:31;15.70;99.90
55369;DHT22;41247;49.736;8.752;2022-09-03T22:40:34;15.70;99.90
55369;DHT22;41247;49.736;8.752;2022-09-03T22:44:41;15.60;99.90
55369;DHT22;41247;49.736;8.752;2022-09-03T22:49:07;15.50;99.90
55369;DHT22;41247;49.736;8.752;2022-09-03T22:53:14;15.40;99.90
55369;DHT22;41247;49.736;8.752;2022-09-03T22:57:18;15.30;99.90
55369;DHT22;41247;49.736;8.752;2022-09-03T23:01:26;15.30;99.90
55369;DHT22;41247;49.736;8.752;2022-09-03T23:05:31;15.30;99.90
55369;DHT22;41247;49.736;8.752;2022-09-03T23:09:18;15.30;99.90
55369;DHT22;41247;49.736;8.752;2022-09-03T23:13:06;15.20;99.90
55369;DHT22;41247;49.736;8.752;2022-09-03T23:16:55;15.20;99.90
55369;DHT22;41247;49.736;8.752;2022-09-03T23:24:54;15.10;99.90
55369;DHT22;41247;49.736;8.752;2022-09-03T23:28:43;15.00;99.90
55369;DHT22;41247;49.736;8.752;2022-09-03T23:32:28;14.90;99.90
55369;DHT22;41247;49.736;8.752;2022-09-03T23:40:48;14.80;99.90
55369;DHT22;41247;49.736;8.752;2022-09-03T23:44:36;14.80;99.90
